sensor_id;sensor_type;location;lat;lon;timestamp;pressure;altitude;pressure_sealevel;temperature;humidity
33163;BME280;29282;45.656;11.302;2022-12-29T00:01:51;99031.06;;;16.81;45.85
33163;BME280;29282;45.656;11.302;2022-12-29T00:04:18;99028.34;;;16.81;46.18
33163;BME280;29282;45.656;11.302;2022-12-29T00:06:44;99025.91;;;16.80;46.01
33163;BME280;29282;45.656;11.302;2022-12-29T00:09:12;99024.00;;;16.80;45.92
33163;BME280;29282;45.656;11.302;2022-12-29T00:11:39;99025.13;;;16.79;46.01
33163;BME280;29282;45.656;11.302;2022-12-29T00:14:04;99016.59;;;16.81;45.77
33163;BME280;29282;45.656;11.302;2022-12-29T00:16:48;99004.03;;;16.80;46.00
33163;BME280;29282;45.656;11.302;2022-12-29T00:19:14;99003.22;;;16.79;45.86
33163;BME280;29282;45.656;11.302;2022-12-29T00:21:58;99005.16;;;16.79;45.94
33163;BME280;29282;45.656;11.302;2022-12-29T00:24:42;98998.84;;;16.78;46.12
33163;BME280;29282;45.656;11.302;2022-12-29T00:27:28;99002.09;;;16.80;46.07
33163;BME280;29282;45.656;11.302;2022-12-29T00:30:14;98987.81;;;16.83;45.89
33163;BME280;29282;45.656;11.302;2022-12-29T00:32:58;98991.97;;;16.81;45.83
33163;BME280;29282;45.656;11.302;2022-12-29T00:36:39;98982.94;;;16.80;45.85
33163;BME280;29282;45.656;11.302;2022-12-29T00:38:40;98977.97;;;16.82;45.80
33163;BME280;29282;45.656;11.302;2022-12-29T00:41:27;98976.34;;;16.81;45.95
33163;BME280;29282;45.656;11.302;2022-12-29T00:44:13;98980.41;;;16.84;45.76
33163;BME280;29282;45.656;11.302;2022-12-29T00:46:40;98977.97;;;16.82;45.88
33163;BME280;29282;45.656;11.302;2022-12-29T00:49:08;98970.25;;;16.84;45.98
33163;BME280;29282;45.656;11.302;2022-12-29T00:51:52;98978.47;;;16.84;45.86
33163;BME280;29282;45.656;11.302;2022-12-29T00:54:19;98972.19;;;16.84;46.09
33163;BME280;29282;45.656;11.302;2022-12-29T00:56:49;98970.56;;;16.83;45.88
33163;BME280;29282;45.656;11.302;2022-12-29T00:59:15;98975.72;;;16.84;45.99
33163;BME280;29282;45.656;11.302;2022-12-29T01:01:41;98971.69;;;16.82;46.00
33163;BME280;29282;45.656;11.302;2022-12-29T01:04:07;98978.78;;;16.83;45.90
33163;BME280;29282;45.656;11.302;2022-12-29T01:06:33;98976.06;;;16.83;45.95
33163;BME280;29282;45.656;11.302;2022-12-29T01:08:59;98976.34;;;16.81;45.83
33163;BME280;29282;45.656;11.302;2022-12-29T01:11:43;98971.38;;;16.83;45.77
33163;BME280;29282;45.656;11.302;2022-12-29T01:14:08;98968.66;;;16.83;46.15
33163;BME280;29282;45.656;11.302;2022-12-29T01:16:34;98968.94;;;16.82;45.95
33163;BME280;29282;45.656;11.302;2022-12-29T01:19:02;98960.72;;;16.82;45.97
33163;BME280;29282;45.656;11.302;2022-12-29T01:21:27;98964.91;;;16.79;46.10
33163;BME280;29282;45.656;11.302;2022-12-29T01:23:53;98965.72;;;16.80;45.98
33163;BME280;29282;45.656;11.302;2022-12-29T01:26:18;98970.38;;;16.79;45.89
33163;BME280;29282;45.656;11.302;2022-12-29T01:28:44;98967.31;;;16.81;46.09
33163;BME280;29282;45.656;11.302;2022-12-29T01:31:11;98967.31;;;16.81;45.90
33163;BME280;29282;45.656;11.302;2022-12-29T01:33:37;98966.53;;;16.80;45.96
33163;BME280;29282;45.656;11.302;2022-12-29T01:36:08;98969.88;;;16.77;46.07
33163;BME280;29282;45.656;11.302;2022-12-29T01:38:35;98975.53;;;16.81;45.95
33163;BME280;29282;45.656;11.302;2022-12-29T01:41:01;98977.47;;;16.80;45.76
33163;BME280;29282;45.656;11.302;2022-12-29T01:43:48;98976.94;;;16.78;45.90
33163;BME280;29282;45.656;11.302;2022-12-29T01:48:45;98987.59;;;16.80;46.03
33163;BME280;29282;45.656;11.302;2022-12-29T01:51:11;98984.88;;;16.80;46.08
33163;BME280;29282;45.656;11.302;2022-12-29T01:53:37;98982.94;;;16.80;46.05
33163;BME280;29282;45.656;11.302;2022-12-29T01:56:06;98980.72;;;16.82;46.07
33163;BME280;29282;45.656;11.302;2022-12-29T01:58:36;98982.13;;;16.80;46.08
33163;BME280;29282;45.656;11.302;2022-12-29T02:01:03;98978.59;;;16.79;46.11
33163;BME280;29282;45.656;11.302;2022-12-29T02:03:30;98974.72;;;16.80;46.03
33163;BME280;29282;45.656;11.302;2022-12-29T02:08:29;98972.50;;;16.82;45.94
33163;BME280;29282;45.656;11.302;2022-12-29T02:10:59;98974.63;;;16.85;46.06
33163;BME280;29282;45.656;11.302;2022-12-29T02:13:25;98985.34;;;16.82;45.88
33163;BME280;29282;45.656;11.302;2022-12-29T02:22:11;98966.72;;;16.84;45.93
33163;BME280;29282;45.656;11.302;2022-12-29T02:27:50;98978.47;;;16.84;45.86
33163;BME280;29282;45.656;11.302;2022-12-29T02:39:02;98956.56;;;16.84;46.05
33163;BME280;29282;45.656;11.302;2022-12-29T02:41:31;98956.56;;;16.84;45.89
33163;BME280;29282;45.656;11.302;2022-12-29T02:46:44;98962.03;;;16.84;45.77
33163;BME280;29282;45.656;11.302;2022-12-29T02:49:37;98954.16;;;16.83;45.93
33163;BME280;29282;45.656;11.302;2022-12-29T02:52:20;98944.00;;;16.83;45.95
33163;BME280;29282;45.656;11.302;2022-12-29T02:54:49;98946.75;;;16.83;45.88
33163;BME280;29282;45.656;11.302;2022-12-29T02:59:50;98942.69;;;16.81;45.86
33163;BME280;29282;45.656;11.302;2022-12-29T03:11:15;98924.97;;;16.78;45.93
33163;BME280;29282;45.656;11.302;2022-12-29T03:14:08;98927.69;;;16.78;45.80
33163;BME280;29282;45.656;11.302;2022-12-29T03:17:08;98924.97;;;16.78;45.78
33163;BME280;29282;45.656;11.302;2022-12-29T03:19:40;98932.06;;;16.79;46.05
33163;BME280;29282;45.656;11.302;2022-12-29T03:22:17;98934.28;;;16.77;45.99
33163;BME280;29282;45.656;11.302;2022-12-29T03:27:38;98929.94;;;16.76;45.94
33163;BME280;29282;45.656;11.302;2022-12-29T03:30:06;98924.16;;;16.78;46.03
33163;BME280;29282;45.656;11.302;2022-12-29T03:32:36;98921.75;;;16.76;46.23
33163;BME280;29282;45.656;11.302;2022-12-29T03:35:05;98913.53;;;16.76;46.03
33163;BME280;29282;45.656;11.302;2022-12-29T03:37:39;98912.72;;;16.76;45.84
33163;BME280;29282;45.656;11.302;2022-12-29T03:40:06;98923.34;;;16.77;46.01
33163;BME280;29282;45.656;11.302;2022-12-29T03:42:34;98909.66;;;16.77;46.24
33163;BME280;29282;45.656;11.302;2022-12-29T03:45:01;98906.63;;;16.79;46.00
33163;BME280;29282;45.656;11.302;2022-12-29T03:47:26;98902.25;;;16.78;46.21
33163;BME280;29282;45.656;11.302;2022-12-29T03:49:52;98898.09;;;16.80;46.10
33163;BME280;29282;45.656;11.302;2022-12-29T03:52:18;98903.06;;;16.78;45.95
33163;BME280;29282;45.656;11.302;2022-12-29T03:54:44;98904.72;;;16.79;46.06
33163;BME280;29282;45.656;11.302;2022-12-29T03:57:10;98910.47;;;16.78;45.96
33163;BME280;29282;45.656;11.302;2022-12-29T03:59:36;98907.72;;;16.78;46.06
33163;BME280;29282;45.656;11.302;2022-12-29T04:02:02;98915.94;;;16.78;45.96
33163;BME280;29282;45.656;11.302;2022-12-29T04:04:27;98911.28;;;16.78;46.04
33163;BME280;29282;45.656;11.302;2022-12-29T04:06:53;98906.13;;;16.77;45.83
33163;BME280;29282;45.656;11.302;2022-12-29T04:09:18;98907.72;;;16.78;45.99
33163;BME280;29282;45.656;11.302;2022-12-29T04:11:44;98905.00;;;16.78;45.92
33163;BME280;29282;45.656;11.302;2022-12-29T04:14:09;98901.47;;;16.77;46.12
33163;BME280;29282;45.656;11.302;2022-12-29T04:16:35;98907.72;;;16.78;45.99
33163;BME280;29282;45.656;11.302;2022-12-29T04:19:01;98911.88;;;16.75;46.00
33163;BME280;29282;45.656;11.302;2022-12-29T04:21:27;98912.41;;;16.77;46.04
33163;BME280;29282;45.656;11.302;2022-12-29T04:23:53;98921.75;;;16.76;46.25
33163;BME280;29282;45.656;11.302;2022-12-29T04:26:18;98920.94;;;16.76;46.07
33163;BME280;29282;45.656;11.302;2022-12-29T04:28:44;98909.44;;;16.74;46.12
33163;BME280;29282;45.656;11.302;2022-12-29T04:31:09;98907.50;;;16.74;46.19
33163;BME280;29282;45.656;11.302;2022-12-29T04:33:35;98913.00;;;16.74;46.26
33163;BME280;29282;45.656;11.302;2022-12-29T04:36:00;98912.19;;;16.74;45.94
33163;BME280;29282;45.656;11.302;2022-12-29T04:38:26;98922.31;;;16.73;46.12
33163;BME280;29282;45.656;11.302;2022-12-29T04:40:52;98917.97;;;16.72;46.20
33163;BME280;29282;45.656;11.302;2022-12-29T04:43:17;98918.47;;;16.74;46.05
33163;BME280;29282;45.656;11.302;2022-12-29T04:45:47;98917.66;;;16.74;46.03
33163;BME280;29282;45.656;11.302;2022-12-29T04:48:13;98912.50;;;16.72;46.07
33163;BME280;29282;45.656;11.302;2022-12-29T04:50:40;98911.38;;;16.73;46.12
33163;BME280;29282;45.656;11.302;2022-12-29T04:53:06;98919.59;;;16.73;46.18
33163;BME280;29282;45.656;11.302;2022-12-29T04:55:32;98929.72;;;16.73;46.21
33163;BME280;29282;45.656;11.302;2022-12-29T04:57:58;98920.09;;;16.75;46.23
33163;BME280;29282;45.656;11.302;2022-12-29T05:00:23;98925.06;;;16.73;45.88
33163;BME280;29282;45.656;11.302;2022-12-29T05:02:49;98917.97;;;16.72;46.27
33163;BME280;29282;45.656;11.302;2022-12-29T05:05:15;98914.13;;;16.73;46.15
33163;BME280;29282;45.656;11.302;2022-12-29T05:07:41;98917.97;;;16.72;46.15
33163;BME280;29282;45.656;11.302;2022-12-29T05:10:07;98927.00;;;16.73;45.89
33163;BME280;29282;45.656;11.302;2022-12-29T05:12:34;98934.41;;;16.72;46.25
33163;BME280;29282;45.656;11.302;2022-12-29T05:14:59;98930.81;;;16.72;46.13
33163;BME280;29282;45.656;11.302;2022-12-29T05:17:26;98926.19;;;16.72;46.12
33163;BME280;29282;45.656;11.302;2022-12-29T05:19:51;98949.41;;;16.75;46.00
33163;BME280;29282;45.656;11.302;2022-12-29T05:22:17;98951.28;;;16.74;46.17
33163;BME280;29282;45.656;11.302;2022-12-29T05:24:42;98955.16;;;16.73;46.31
33163;BME280;29282;45.656;11.302;2022-12-29T05:27:08;98945.34;;;16.72;46.22
33163;BME280;29282;45.656;11.302;2022-12-29T05:29:33;98934.41;;;16.72;46.00
33163;BME280;29282;45.656;11.302;2022-12-29T05:31:59;98937.94;;;16.73;46.16
33163;BME280;29282;45.656;11.302;2022-12-29T05:34:24;98933.25;;;16.73;45.99
33163;BME280;29282;45.656;11.302;2022-12-29T05:36:50;98945.34;;;16.72;46.19
33163;BME280;29282;45.656;11.302;2022-12-29T05:39:16;98946.94;;;16.73;45.98
33163;BME280;29282;45.656;11.302;2022-12-29T05:41:41;98946.66;;;16.75;45.99
33163;BME280;29282;45.656;11.302;2022-12-29T05:44:07;98940.97;;;16.71;45.92
33163;BME280;29282;45.656;11.302;2022-12-29T05:46:32;98938.75;;;16.73;46.07
33163;BME280;29282;45.656;11.302;2022-12-29T05:48:58;98942.59;;;16.72;46.12
33163;BME280;29282;45.656;11.302;2022-12-29T05:51:23;98943.09;;;16.74;46.20
33163;BME280;29282;45.656;11.302;2022-12-29T05:53:49;98935.72;;;16.75;46.07
33163;BME280;29282;45.656;11.302;2022-12-29T05:56:15;98937.94;;;16.73;46.23
33163;BME280;29282;45.656;11.302;2022-12-29T05:58:41;98941.19;;;16.75;45.80
33163;BME280;29282;45.656;11.302;2022-12-29T06:01:06;98929.16;;;16.76;46.03
33163;BME280;29282;45.656;11.302;2022-12-29T06:03:32;98933.78;;;16.75;46.03
33163;BME280;29282;45.656;11.302;2022-12-29T06:05:57;98936.53;;;16.75;46.03
33163;BME280;29282;45.656;11.302;2022-12-29T06:08:23;98940.34;;;16.74;46.18
33163;BME280;29282;45.656;11.302;2022-12-29T06:10:49;98938.97;;;16.77;45.97
33163;BME280;29282;45.656;11.302;2022-12-29T06:13:15;98937.34;;;16.76;45.98
33163;BME280;29282;45.656;11.302;2022-12-29T06:15:41;98934.88;;;16.74;45.93
33163;BME280;29282;45.656;11.302;2022-12-29T06:18:07;98923.66;;;16.76;46.10
33163;BME280;29282;45.656;11.302;2022-12-29T06:20:32;98922.53;;;16.77;46.17
33163;BME280;29282;45.656;11.302;2022-12-29T06:22:58;98928.31;;;16.75;46.16
33163;BME280;29282;45.656;11.302;2022-12-29T06:25:23;98931.03;;;16.75;46.03
33163;BME280;29282;45.656;11.302;2022-12-29T06:27:49;98933.50;;;16.77;45.95
33163;BME280;29282;45.656;11.302;2022-12-29T06:30:14;98928.31;;;16.75;46.00
33163;BME280;29282;45.656;11.302;2022-12-29T06:32:41;98924.78;;;16.75;46.07
33163;BME280;29282;45.656;11.302;2022-12-29T06:35:07;98924.47;;;16.76;46.05
33163;BME280;29282;45.656;11.302;2022-12-29T06:37:32;98922.03;;;16.75;46.07
33163;BME280;29282;45.656;11.302;2022-12-29T06:39:58;98921.19;;;16.74;46.03
33163;BME280;29282;45.656;11.302;2022-12-29T06:42:23;98933.78;;;16.75;46.30
33163;BME280;29282;45.656;11.302;2022-12-29T06:44:49;98936.53;;;16.75;46.04
33163;BME280;29282;45.656;11.302;2022-12-29T06:47:15;98926.41;;;16.76;46.18
33163;BME280;29282;45.656;11.302;2022-12-29T06:49:40;98916.56;;;16.75;46.04
33163;BME280;29282;45.656;11.302;2022-12-29T06:52:06;98924.47;;;16.76;46.05
33163;BME280;29282;45.656;11.302;2022-12-29T06:54:32;98924.47;;;16.76;46.09
33163;BME280;29282;45.656;11.302;2022-12-29T06:56:58;98914.63;;;16.75;46.07
33163;BME280;29282;45.656;11.302;2022-12-29T06:59:24;98917.38;;;16.75;46.17
33163;BME280;29282;45.656;11.302;2022-12-29T07:01:50;98910.78;;;16.76;46.21
33163;BME280;29282;45.656;11.302;2022-12-29T07:04:16;98910.25;;;16.74;46.11
33163;BME280;29282;45.656;11.302;2022-12-29T07:06:41;98910.00;;;16.76;45.90
33163;BME280;29282;45.656;11.302;2022-12-29T07:09:08;98913.00;;;16.74;46.15
33163;BME280;29282;45.656;11.302;2022-12-29T07:11:34;98916.56;;;16.75;46.06
33163;BME280;29282;45.656;11.302;2022-12-29T07:14:01;98919.00;;;16.76;45.93
33163;BME280;29282;45.656;11.302;2022-12-29T07:16:27;98917.66;;;16.74;46.06
33163;BME280;29282;45.656;11.302;2022-12-29T07:18:54;98920.09;;;16.75;45.97
33163;BME280;29282;45.656;11.302;2022-12-29T07:21:20;98923.34;;;16.77;45.94
33163;BME280;29282;45.656;11.302;2022-12-29T07:23:46;98931.88;;;16.76;45.96
33163;BME280;29282;45.656;11.302;2022-12-29T07:26:13;98935.09;;;16.78;46.03
33163;BME280;29282;45.656;11.302;2022-12-29T07:28:38;98937.34;;;16.76;46.02
33163;BME280;29282;45.656;11.302;2022-12-29T07:31:05;98940.56;;;16.78;46.11
33163;BME280;29282;45.656;11.302;2022-12-29T07:33:32;98940.56;;;16.78;45.91
33163;BME280;29282;45.656;11.302;2022-12-29T07:35:58;98938.34;;;16.80;46.02
33163;BME280;29282;45.656;11.302;2022-12-29T07:38:23;98940.28;;;16.79;45.96
33163;BME280;29282;45.656;11.302;2022-12-29T07:40:49;98941.91;;;16.80;46.12
33163;BME280;29282;45.656;11.302;2022-12-29T07:43:14;98949.28;;;16.80;46.04
33163;BME280;29282;45.656;11.302;2022-12-29T07:45:40;98947.69;;;16.79;46.09
33163;BME280;29282;45.656;11.302;2022-12-29T07:48:06;98958.31;;;16.80;46.05
33163;BME280;29282;45.656;11.302;2022-12-29T07:50:35;98952.84;;;16.80;45.94
33163;BME280;29282;45.656;11.302;2022-12-29T07:53:00;98954.78;;;16.80;46.07
33163;BME280;29282;45.656;11.302;2022-12-29T07:55:26;98956.38;;;16.81;46.04
33163;BME280;29282;45.656;11.302;2022-12-29T07:57:55;98959.44;;;16.79;46.00
33163;BME280;29282;45.656;11.302;2022-12-29T08:00:22;98956.69;;;16.79;45.92
33163;BME280;29282;45.656;11.302;2022-12-29T08:02:48;98967.66;;;16.79;46.10
33163;BME280;29282;45.656;11.302;2022-12-29T08:05:13;98968.44;;;16.80;45.94
33163;BME280;29282;45.656;11.302;2022-12-29T08:07:39;98965.72;;;16.80;45.93
33163;BME280;29282;45.656;11.302;2022-12-29T08:10:05;98960.25;;;16.80;45.98
33163;BME280;29282;45.656;11.302;2022-12-29T08:12:30;98970.38;;;16.79;46.20
33163;BME280;29282;45.656;11.302;2022-12-29T08:14:56;98976.94;;;16.78;46.01
33163;BME280;29282;45.656;11.302;2022-12-29T08:17:21;98974.22;;;16.78;46.01
33163;BME280;29282;45.656;11.302;2022-12-29T08:19:47;98967.94;;;16.78;46.05
33163;BME280;29282;45.656;11.302;2022-12-29T08:22:15;98969.06;;;16.77;46.05
33163;BME280;29282;45.656;11.302;2022-12-29T08:24:41;98974.22;;;16.78;46.13
33163;BME280;29282;45.656;11.302;2022-12-29T08:27:06;98978.06;;;16.77;45.92
33163;BME280;29282;45.656;11.302;2022-12-29T08:29:32;98981.94;;;16.76;46.11
33163;BME280;29282;45.656;11.302;2022-12-29T08:31:57;98980.31;;;16.75;46.19
33163;BME280;29282;45.656;11.302;2022-12-29T08:34:23;98981.41;;;16.74;46.08
33163;BME280;29282;45.656;11.302;2022-12-29T08:36:48;98986.38;;;16.72;46.27
33163;BME280;29282;45.656;11.302;2022-12-29T08:39:14;98982.81;;;16.72;46.27
33163;BME280;29282;45.656;11.302;2022-12-29T08:41:39;98989.13;;;16.72;46.27
33163;BME280;29282;45.656;11.302;2022-12-29T08:44:05;98992.94;;;16.71;46.12
33163;BME280;29282;45.656;11.302;2022-12-29T08:46:31;99003.91;;;16.71;46.16
33163;BME280;29282;45.656;11.302;2022-12-29T08:48:56;99001.16;;;16.71;46.28
33163;BME280;29282;45.656;11.302;2022-12-29T08:51:22;98999.22;;;16.72;46.40
33163;BME280;29282;45.656;11.302;2022-12-29T08:53:47;98998.41;;;16.71;46.14
33163;BME280;29282;45.656;11.302;2022-12-29T08:56:13;98998.41;;;16.71;46.31
33163;BME280;29282;45.656;11.302;2022-12-29T08:58:39;98995.69;;;16.71;46.10
33163;BME280;29282;45.656;11.302;2022-12-29T09:01:04;99006.94;;;16.70;46.12
33163;BME280;29282;45.656;11.302;2022-12-29T09:03:30;99003.91;;;16.71;46.00
33163;BME280;29282;45.656;11.302;2022-12-29T09:05:55;98999.22;;;16.72;46.35
33163;BME280;29282;45.656;11.302;2022-12-29T09:08:22;98999.22;;;16.72;46.19
33163;BME280;29282;45.656;11.302;2022-12-29T09:10:48;98999.56;;;16.70;46.21
33163;BME280;29282;45.656;11.302;2022-12-29T09:13:14;98999.56;;;16.70;46.13
33163;BME280;29282;45.656;11.302;2022-12-29T09:15:40;99011.00;;;16.72;46.22
33163;BME280;29282;45.656;11.302;2022-12-29T09:18:08;99016.97;;;16.74;46.10
33163;BME280;29282;45.656;11.302;2022-12-29T09:20:33;99012.09;;;16.71;46.33
33163;BME280;29282;45.656;11.302;2022-12-29T09:22:59;99006.94;;;16.70;46.14
33163;BME280;29282;45.656;11.302;2022-12-29T09:25:25;99011.28;;;16.71;46.13
33163;BME280;29282;45.656;11.302;2022-12-29T09:27:51;99026.31;;;16.73;46.23
33163;BME280;29282;45.656;11.302;2022-12-29T09:30:21;99019.50;;;16.71;46.01
33163;BME280;29282;45.656;11.302;2022-12-29T09:32:48;99004.69;;;16.72;46.09
33163;BME280;29282;45.656;11.302;2022-12-29T09:35:14;99004.41;;;16.73;46.38
33163;BME280;29282;45.656;11.302;2022-12-29T09:37:41;99011.00;;;16.72;46.08
33163;BME280;29282;45.656;11.302;2022-12-29T09:40:09;99007.66;;;16.75;46.09
33163;BME280;29282;45.656;11.302;2022-12-29T09:45:36;99004.13;;;16.75;46.20
33163;BME280;29282;45.656;11.302;2022-12-29T09:48:11;99009.59;;;16.75;45.92
33163;BME280;29282;45.656;11.302;2022-12-29T09:50:39;98995.91;;;16.75;46.27
33163;BME280;29282;45.656;11.302;2022-12-29T09:53:27;98988.50;;;16.75;46.24
33163;BME280;29282;45.656;11.302;2022-12-29T09:55:58;98989.34;;;16.76;46.12
33163;BME280;29282;45.656;11.302;2022-12-29T09:58:45;98991.25;;;16.75;46.24
33163;BME280;29282;45.656;11.302;2022-12-29T10:03:51;98981.41;;;16.74;46.25
33163;BME280;29282;45.656;11.302;2022-12-29T10:12:15;98981.72;;;16.73;46.23
33163;BME280;29282;45.656;11.302;2022-12-29T10:17:47;98967.72;;;16.74;46.14
33163;BME280;29282;45.656;11.302;2022-12-29T10:20:20;98971.28;;;16.75;46.15
33163;BME280;29282;45.656;11.302;2022-12-29T10:25:26;98963.38;;;16.73;46.29
33163;BME280;29282;45.656;11.302;2022-12-29T10:27:57;98966.09;;;16.73;46.28
33163;BME280;29282;45.656;11.302;2022-12-29T10:30:24;98952.41;;;16.73;46.12
33163;BME280;29282;45.656;11.302;2022-12-29T10:32:58;98970.78;;;16.73;46.25
33163;BME280;29282;45.656;11.302;2022-12-29T10:35:37;98953.56;;;16.72;46.28
33163;BME280;29282;45.656;11.302;2022-12-29T10:40:46;98950.28;;;16.70;46.30
33163;BME280;29282;45.656;11.302;2022-12-29T10:43:25;98965.09;;;16.69;46.51
33163;BME280;29282;45.656;11.302;2022-12-29T10:46:00;98963.66;;;16.72;46.50
33163;BME280;29282;45.656;11.302;2022-12-29T10:48:32;98957.38;;;16.71;46.23
33163;BME280;29282;45.656;11.302;2022-12-29T10:51:00;98940.97;;;16.71;46.28
33163;BME280;29282;45.656;11.302;2022-12-29T10:53:42;98946.44;;;16.71;46.32
33163;BME280;29282;45.656;11.302;2022-12-29T10:56:25;98965.59;;;16.71;46.33
33163;BME280;29282;45.656;11.302;2022-12-29T10:58:54;98951.09;;;16.71;46.38
33163;BME280;29282;45.656;11.302;2022-12-29T11:01:22;98932.28;;;16.69;46.28
33163;BME280;29282;45.656;11.302;2022-12-29T11:07:01;98928.69;;;16.68;46.27
33163;BME280;29282;45.656;11.302;2022-12-29T11:09:29;98936.09;;;16.68;46.35
33163;BME280;29282;45.656;11.302;2022-12-29T11:11:55;98927.88;;;16.68;46.22
33163;BME280;29282;45.656;11.302;2022-12-29T11:14:29;98934.16;;;16.68;46.33
33163;BME280;29282;45.656;11.302;2022-12-29T11:16:59;98936.09;;;16.68;46.35
33163;BME280;29282;45.656;11.302;2022-12-29T11:19:28;98931.44;;;16.68;46.43
33163;BME280;29282;45.656;11.302;2022-12-29T11:21:54;98923.53;;;16.67;46.25
33163;BME280;29282;45.656;11.302;2022-12-29T11:24:27;98905.53;;;16.66;46.45
33163;BME280;29282;45.656;11.302;2022-12-29T11:29:40;98904.72;;;16.65;46.40
33163;BME280;29282;45.656;11.302;2022-12-29T11:32:18;98905.53;;;16.66;46.45
33163;BME280;29282;45.656;11.302;2022-12-29T11:34:44;98903.88;;;16.65;46.48
33163;BME280;29282;45.656;11.302;2022-12-29T11:37:18;98909.34;;;16.65;46.65
33163;BME280;29282;45.656;11.302;2022-12-29T11:39:56;98919.50;;;16.64;46.33
33163;BME280;29282;45.656;11.302;2022-12-29T11:42:36;98909.34;;;16.65;46.65
33163;BME280;29282;45.656;11.302;2022-12-29T11:45:12;98889.72;;;16.63;46.49
33163;BME280;29282;45.656;11.302;2022-12-29T11:47:42;98890.00;;;16.61;46.76
33163;BME280;29282;45.656;11.302;2022-12-29T11:50:20;98894.38;;;16.62;46.55
33163;BME280;29282;45.656;11.302;2022-12-29T11:52:48;98888.91;;;16.62;46.68
33163;BME280;29282;45.656;11.302;2022-12-29T11:55:20;98877.47;;;16.60;46.55
33163;BME280;29282;45.656;11.302;2022-12-29T11:57:47;98876.34;;;16.61;46.61
33163;BME280;29282;45.656;11.302;2022-12-29T12:00:19;98877.47;;;16.60;46.65
33163;BME280;29282;45.656;11.302;2022-12-29T12:05:22;98878.25;;;16.61;46.73
33163;BME280;29282;45.656;11.302;2022-12-29T12:16:53;98872.78;;;16.61;46.61
33163;BME280;29282;45.656;11.302;2022-12-29T12:19:43;98866.50;;;16.60;46.44
33163;BME280;29282;45.656;11.302;2022-12-29T12:22:22;98860.72;;;16.62;46.76
33163;BME280;29282;45.656;11.302;2022-12-29T12:25:17;98855.56;;;16.60;46.55
33163;BME280;29282;45.656;11.302;2022-12-29T12:28:04;98857.50;;;16.60;46.55
33163;BME280;29282;45.656;11.302;2022-12-29T12:30:40;98861.84;;;16.61;46.65
33163;BME280;29282;45.656;11.302;2022-12-29T12:33:41;98871.97;;;16.60;46.59
33163;BME280;29282;45.656;11.302;2022-12-29T12:36:17;98865.72;;;16.60;46.54
33163;BME280;29282;45.656;11.302;2022-12-29T13:00:19;98816.56;;;16.55;46.66
33163;BME280;29282;45.656;11.302;2022-12-29T13:10:46;98829.44;;;16.54;46.66
33163;BME280;29282;45.656;11.302;2022-12-29T13:18:47;98842.84;;;16.56;46.80
33163;BME280;29282;45.656;11.302;2022-12-29T13:21:51;98850.53;;;16.54;46.79
33163;BME280;29282;45.656;11.302;2022-12-29T13:27:18;98842.31;;;16.54;46.76
33163;BME280;29282;45.656;11.302;2022-12-29T13:29:59;98832.19;;;16.54;46.55
33163;BME280;29282;45.656;11.302;2022-12-29T13:38:13;98818.81;;;16.53;46.66
33163;BME280;29282;45.656;11.302;2022-12-29T13:40:46;98825.91;;;16.54;46.69
33163;BME280;29282;45.656;11.302;2022-12-29T13:43:15;98836.03;;;16.53;46.74
33163;BME280;29282;45.656;11.302;2022-12-29T13:45:42;98836.84;;;16.54;46.73
33163;BME280;29282;45.656;11.302;2022-12-29T13:48:27;98845.88;;;16.54;46.65
33163;BME280;29282;45.656;11.302;2022-12-29T13:50:58;98846.97;;;16.53;46.71
33163;BME280;29282;45.656;11.302;2022-12-29T13:56:07;98849.41;;;16.55;46.63
33163;BME280;29282;45.656;11.302;2022-12-29T13:59:29;98839.59;;;16.54;46.88
33163;BME280;29282;45.656;11.302;2022-12-29T14:01:53;98843.13;;;16.54;46.83
33163;BME280;29282;45.656;11.302;2022-12-29T14:04:24;98846.66;;;16.55;46.65
33163;BME280;29282;45.656;11.302;2022-12-29T14:07:04;98841.50;;;16.53;46.74
33163;BME280;29282;45.656;11.302;2022-12-29T14:09:46;98851.34;;;16.54;46.62
33163;BME280;29282;45.656;11.302;2022-12-29T14:15:04;98843.94;;;16.55;46.63
33163;BME280;29282;45.656;11.302;2022-12-29T14:17:30;98838.78;;;16.53;46.73
33163;BME280;29282;45.656;11.302;2022-12-29T14:19:55;98852.13;;;16.55;46.52
33163;BME280;29282;45.656;11.302;2022-12-29T14:22:26;98859.53;;;16.54;46.70
33163;BME280;29282;45.656;11.302;2022-12-29T14:24:52;98851.03;;;16.56;46.73
33163;BME280;29282;45.656;11.302;2022-12-29T14:29:45;98847.78;;;16.54;46.67
33163;BME280;29282;45.656;11.302;2022-12-29T14:34:56;98854.88;;;16.55;46.71
33163;BME280;29282;45.656;11.302;2022-12-29T14:37:32;98861.47;;;16.54;46.71
33163;BME280;29282;45.656;11.302;2022-12-29T14:42:45;98861.47;;;16.54;46.49
33163;BME280;29282;45.656;11.302;2022-12-29T14:47:41;98856.00;;;16.54;46.66
33163;BME280;29282;45.656;11.302;2022-12-29T14:57:44;98849.41;;;16.55;46.60
33163;BME280;29282;45.656;11.302;2022-12-29T15:00:23;98841.50;;;16.53;46.64
33163;BME280;29282;45.656;11.302;2022-12-29T15:03:17;98840.38;;;16.54;46.66
33163;BME280;29282;45.656;11.302;2022-12-29T15:05:50;98832.19;;;16.54;46.66
33163;BME280;29282;45.656;11.302;2022-12-29T15:08:19;98840.38;;;16.54;46.70
33163;BME280;29282;45.656;11.302;2022-12-29T15:10:52;98852.13;;;16.55;46.89
33163;BME280;29282;45.656;11.302;2022-12-29T15:13:24;98843.94;;;16.55;46.67
33163;BME280;29282;45.656;11.302;2022-12-29T15:15:51;98851.03;;;16.56;46.56
33163;BME280;29282;45.656;11.302;2022-12-29T15:18:28;98850.19;;;16.55;46.59
33163;BME280;29282;45.656;11.302;2022-12-29T15:20:57;98846.66;;;16.55;46.67
33163;BME280;29282;45.656;11.302;2022-12-29T15:23:25;98845.56;;;16.56;46.80
33163;BME280;29282;45.656;11.302;2022-12-29T15:25:55;98857.31;;;16.56;46.48
33163;BME280;29282;45.656;11.302;2022-12-29T15:28:21;98856.50;;;16.56;46.61